Mount Tabor, North Carolina
Current Conditions -  °F | °C
As of 6:54 AM on Friday 19 Dec 2014 (Local Time) from KINT Reporting Station
Clear Clear  
Wind Chill: 38°   Ceiling: Unl
Heat Index: 38°   Visibility: 10mi
Dew Point: 22°   Wind: 3mph
Humidity: 53%   Direction: 320°NW
Pressure: 30.14"   Gusts: NA
Location:  36.1422°N, 80.3221°W
Report Text: KINT 191154Z 32003KT 10SM CLR 03/M06 A3014 RMK AO2 SLP207 T00331056 10061 20028 53011
Loading
Personal Weather Stations






























Interactive Weather Map New forecast layout! Learn more

10-Day Weather Forecast

Advertisements
Track Severe Weather on mobile